< < Back
Terminal Aerodrome Forecast


Current Version              Previous Versions:   1  2  3  4  5  6  7  8  9  

Terminal Aerodrome Forecast

977
FTUS42 KGSP 251000 AAA
TAFAND
TAF AMD
KAND 251039Z 2511/2606 00000KT P6SM SCT008 BKN045
     FM251400 05003KT P6SM SCT045
     FM251700 12003KT P6SM SCT050
     FM252000 19004KT P6SM SCT050
     FM260200 00000KT P6SM SCT060=



Latest METAR

858
SAUS70 KWBC 251200 RRB
MTRAND
METAR KAND 251156Z AUTO 05008KT 10SM CLR 22/20 A3004 RMK AO2 SLP161
T02220200 10228 20211 51021


USA.gov is the U.S. government's official web portal to all federal, state and local government web resources and services.